createdAt,value
2018-12-22T00:06:36.229Z,100546.19
2018-12-22T00:10:03.144Z,100540.92
2018-12-22T00:13:30.644Z,100539.30
2018-12-22T00:16:57.627Z,100536.92
2018-12-22T00:20:25.387Z,100537.25
2018-12-22T00:23:54.314Z,100548.13
2018-12-22T00:27:22.448Z,100541.13
2018-12-22T00:30:50.632Z,100533.39
2018-12-22T00:34:15.413Z,100550.78
2018-12-22T00:37:40.057Z,100527.50
2018-12-22T00:41:04.780Z,100540.11
2018-12-22T00:44:29.442Z,100540.25
2018-12-22T00:47:54.083Z,100534.91
2018-12-22T00:51:18.822Z,100539.29
2018-12-22T00:54:43.605Z,100533.19
2018-12-22T00:58:08.290Z,100530.12
2018-12-22T01:01:32.918Z,100538.11
2018-12-22T01:04:57.587Z,100536.30
2018-12-22T01:08:22.193Z,100531.27
2018-12-22T01:11:46.863Z,100535.72
2018-12-22T01:15:11.568Z,100531.52
2018-12-22T01:18:36.267Z,100538.52
2018-12-22T01:22:00.955Z,100522.53
2018-12-22T01:25:25.605Z,100527.98
2018-12-22T01:28:50.280Z,100530.67
2018-12-22T01:32:15.128Z,100540.92
2018-12-22T01:35:39.881Z,100532.72
2018-12-22T01:39:05.483Z,100543.82
2018-12-22T01:42:30.448Z,100538.09
2018-12-22T01:45:55.115Z,100542.95
2018-12-22T01:49:19.838Z,100542.63
2018-12-22T01:52:44.548Z,100541.54
2018-12-22T01:56:09.343Z,100534.49
2018-12-22T01:59:34.046Z,100534.56
2018-12-22T02:02:58.703Z,100533.68
2018-12-22T02:06:23.466Z,100526.08
2018-12-22T02:09:48.189Z,100517.31
2018-12-22T02:13:12.949Z,100515.22
2018-12-22T02:16:37.672Z,100510.28
2018-12-22T02:20:02.377Z,100514.86
2018-12-22T02:23:27.110Z,100519.89
2018-12-22T02:26:51.779Z,100515.22
2018-12-22T02:30:16.386Z,100497.90
2018-12-22T02:33:41.053Z,100503.31
2018-12-22T02:37:05.709Z,100494.63
2018-12-22T02:40:33.209Z,100493.53
2018-12-22T02:43:57.866Z,100488.41
2018-12-22T02:47:22.584Z,100481.11
2018-12-22T02:50:47.305Z,100477.70
2018-12-22T02:54:11.957Z,100465.70
2018-12-22T02:57:36.601Z,100465.56
2018-12-22T03:01:01.213Z,100454.69
2018-12-22T03:04:25.902Z,100450.13
2018-12-22T03:07:50.541Z,100438.91
2018-12-22T03:11:15.309Z,100420.64
2018-12-22T03:14:40.071Z,100429.95
2018-12-22T03:18:04.776Z,100425.28
2018-12-22T03:21:29.477Z,100414.08
2018-12-22T03:24:54.245Z,100404.20
2018-12-22T03:28:18.920Z,100400.18
2018-12-22T03:31:43.599Z,100410.95
2018-12-22T03:35:08.417Z,100404.44
2018-12-22T03:38:33.261Z,100398.45
2018-12-22T03:41:58.052Z,100405.11
2018-12-22T03:45:22.794Z,100400.95
2018-12-22T03:48:54.203Z,100395.61
2018-12-22T03:52:18.926Z,100389.05
2018-12-22T03:55:43.585Z,100378.43
2018-12-22T03:59:08.375Z,100372.37
2018-12-22T04:02:33.026Z,100364.14
2018-12-22T04:05:57.782Z,100364.33
2018-12-22T04:09:22.544Z,100374.17
2018-12-22T04:12:47.452Z,100361.69
2018-12-22T04:16:12.155Z,100374.06
2018-12-22T04:19:36.851Z,100380.61
2018-12-22T04:23:01.511Z,100389.56
2018-12-22T04:26:26.405Z,100381.83
2018-12-22T04:29:51.215Z,100391.16
2018-12-22T04:33:15.935Z,100388.39
2018-12-22T04:36:40.649Z,100388.53
2018-12-22T04:40:05.754Z,100399.73
2018-12-22T04:43:30.510Z,100394.41
2018-12-22T04:46:55.291Z,100436.55
2018-12-22T04:50:19.974Z,100422.95
2018-12-22T04:53:44.634Z,100404.81
2018-12-22T04:57:09.264Z,100412.41
2018-12-22T05:00:34.144Z,100405.61
2018-12-22T05:03:58.762Z,100413.95
2018-12-22T05:07:23.436Z,100412.80
2018-12-22T05:10:48.055Z,100425.82
2018-12-22T05:14:12.744Z,100427.40
2018-12-22T05:17:37.472Z,100452.11
2018-12-22T05:21:02.265Z,100474.09
2018-12-22T05:24:26.919Z,100476.33
2018-12-22T05:27:51.578Z,100476.97
2018-12-22T05:31:16.267Z,100490.16
2018-12-22T05:34:40.947Z,100504.27
2018-12-22T05:38:05.601Z,100492.68
2018-12-22T05:41:30.210Z,100499.05
2018-12-22T05:44:54.870Z,100499.05
2018-12-22T05:48:19.519Z,100502.43
2018-12-22T05:51:44.197Z,100501.94
2018-12-22T05:55:08.892Z,100515.05
2018-12-22T05:58:33.548Z,100519.81
2018-12-22T06:01:58.206Z,100512.78
2018-12-22T06:05:22.896Z,100524.27
2018-12-22T06:08:47.581Z,100530.91
2018-12-22T06:12:12.224Z,100547.95
2018-12-22T06:15:36.875Z,100544.28
2018-12-22T06:19:01.500Z,100558.23
2018-12-22T06:22:26.198Z,100563.78
2018-12-22T06:25:50.853Z,100579.38
2018-12-22T06:29:15.511Z,100592.37
2018-12-22T06:32:40.154Z,100599.21
2018-12-22T06:36:04.965Z,100607.78
2018-12-22T06:39:29.687Z,100616.08
2018-12-22T06:42:54.375Z,100632.12
2018-12-22T06:46:19.246Z,100624.13
2018-12-22T06:49:43.955Z,100640.59
2018-12-22T06:53:08.834Z,100641.58
2018-12-22T06:56:33.521Z,100658.66
2018-12-22T06:59:58.161Z,100660.69
2018-12-22T07:03:22.778Z,100663.81
2018-12-22T07:06:47.473Z,100670.31
2018-12-22T07:10:12.299Z,100670.45
2018-12-22T07:13:36.907Z,100684.75
2018-12-22T07:17:01.620Z,100688.78
2018-12-22T07:20:26.437Z,100697.53
2018-12-22T07:23:51.109Z,100709.98
2018-12-22T07:27:15.772Z,100713.46
2018-12-22T07:30:47.066Z,100716.02
2018-12-22T07:34:11.786Z,100718.30
2018-12-22T07:37:36.485Z,100726.79
2018-12-22T07:41:01.155Z,100737.80
2018-12-22T07:44:25.826Z,100751.41
2018-12-22T07:47:50.499Z,100756.19
2018-12-22T07:51:15.232Z,100761.93
2018-12-22T07:54:40.063Z,100774.88
2018-12-22T07:58:04.933Z,100777.70
2018-12-22T08:01:29.732Z,100788.13
2018-12-22T08:04:54.473Z,100793.31
2018-12-22T08:08:19.201Z,100804.91
2018-12-22T08:11:43.935Z,100814.73
2018-12-22T08:15:08.915Z,100829.94
2018-12-22T08:18:33.536Z,100844.11
2018-12-22T08:21:58.187Z,100858.48
2018-12-22T08:25:22.974Z,100866.12
2018-12-22T08:28:47.681Z,100876.27
2018-12-22T08:32:12.545Z,100887.80
2018-12-22T08:35:37.394Z,100887.42
2018-12-22T08:39:02.135Z,100896.61
2018-12-22T08:42:26.841Z,100912.66
2018-12-22T08:45:51.578Z,100936.97
2018-12-22T08:49:16.168Z,100941.00
2018-12-22T08:52:40.778Z,100948.75
2018-12-22T08:56:05.606Z,100962.72
2018-12-22T08:59:30.220Z,100960.98
2018-12-22T09:02:54.979Z,100977.55
2018-12-22T09:06:19.620Z,100983.90
2018-12-22T09:09:44.280Z,100993.33
2018-12-22T09:13:08.918Z,100994.17
2018-12-22T09:16:33.634Z,101001.36
2018-12-22T09:19:58.328Z,101018.71
2018-12-22T09:23:22.953Z,101032.66
2018-12-22T09:26:47.616Z,101029.78
2018-12-22T09:30:13.954Z,101041.41
2018-12-22T09:33:38.696Z,101046.89
2018-12-22T09:37:03.447Z,101054.61
2018-12-22T09:40:28.213Z,101052.17
2018-12-22T09:43:52.980Z,101057.74
2018-12-22T09:47:17.592Z,101063.23
2018-12-22T09:50:42.250Z,101058.58
2018-12-22T09:54:07.038Z,101080.64
2018-12-22T09:57:31.823Z,101069.66
2018-12-22T10:01:00.320Z,101072.22
2018-12-22T10:04:25.251Z,101082.91
2018-12-22T10:07:49.914Z,101085.72
2018-12-22T10:11:14.560Z,101081.05
2018-12-22T10:14:39.338Z,101076.02
2018-12-22T10:18:04.056Z,101078.91
2018-12-22T10:21:28.725Z,101089.28
2018-12-22T10:24:53.407Z,101100.09
2018-12-22T10:28:18.442Z,101097.56
2018-12-22T10:31:43.136Z,101096.30
2018-12-22T10:35:13.243Z,101096.52
2018-12-22T10:38:37.955Z,101089.81
2018-12-22T10:42:02.687Z,101099.92
2018-12-22T10:45:27.386Z,101097.33
2018-12-22T10:48:52.063Z,101104.17
2018-12-22T10:52:16.733Z,101109.13
2018-12-22T10:55:41.499Z,101108.33
2018-12-22T10:59:06.233Z,101107.47
2018-12-22T11:02:30.911Z,101105.31
2018-12-22T11:05:55.685Z,101107.66
2018-12-22T11:09:21.159Z,101111.36
2018-12-22T11:12:45.835Z,101123.06
2018-12-22T11:16:10.686Z,101110.88
2018-12-22T11:19:35.438Z,101118.70
2018-12-22T11:23:00.151Z,101119.67
2018-12-22T11:26:24.820Z,101112.73
2018-12-22T11:29:49.475Z,101119.67
2018-12-22T11:33:14.562Z,101117.02
2018-12-22T11:36:39.519Z,101137.03
2018-12-22T11:40:06.429Z,101134.81
2018-12-22T11:43:31.381Z,101131.16
2018-12-22T11:47:01.101Z,101133.97
2018-12-22T11:50:27.688Z,101138.53
2018-12-22T11:53:52.379Z,101137.30
2018-12-22T11:57:17.077Z,101136.31
2018-12-22T12:00:41.935Z,101141.81
2018-12-22T12:04:06.741Z,101145.27
2018-12-22T12:07:31.415Z,101135.90
2018-12-22T12:10:56.228Z,101149.88
2018-12-22T12:14:20.926Z,101150.05
2018-12-22T12:19:04.935Z,101155.70
2018-12-22T12:22:29.736Z,101163.90
2018-12-22T12:25:54.381Z,101163.69
2018-12-22T12:29:25.642Z,101172.27
2018-12-22T12:32:50.263Z,101179.66
2018-12-22T12:36:15.063Z,101185.30
2018-12-22T12:39:39.678Z,101192.28
2018-12-22T12:43:07.296Z,101197.45
2018-12-22T12:46:46.040Z,101197.00
2018-12-22T12:50:14.207Z,101204.70
2018-12-22T12:53:39.133Z,101209.12
2018-12-22T12:57:04.122Z,101228.08
2018-12-22T13:00:28.937Z,101227.48
2018-12-22T13:03:53.933Z,101222.30
2018-12-22T13:07:18.871Z,101236.16
2018-12-22T13:10:43.746Z,101238.55
2018-12-22T13:14:16.512Z,101231.83
2018-12-22T13:17:41.422Z,101233.16
2018-12-22T13:21:08.974Z,101228.46
2018-12-22T13:24:33.723Z,101242.14
2018-12-22T13:27:58.566Z,101248.77
2018-12-22T13:31:27.181Z,101260.45
2018-12-22T13:34:52.702Z,101255.50
2018-12-22T13:38:18.411Z,101266.70
2018-12-22T13:41:43.282Z,101287.06
2018-12-22T13:45:28.187Z,101290.89
2018-12-22T13:48:53.497Z,101293.09
2018-12-22T13:52:18.250Z,101310.36
2018-12-22T13:55:42.936Z,101313.84
2018-12-22T13:59:07.736Z,101308.59
2018-12-22T14:02:37.245Z,101303.38
2018-12-22T14:06:01.939Z,101303.92
2018-12-22T14:09:26.613Z,101307.63
2018-12-22T14:12:51.421Z,101311.73
2018-12-22T14:16:30.156Z,101321.02
2018-12-22T14:20:03.451Z,101329.80
2018-12-22T14:23:39.867Z,101339.67
2018-12-22T14:27:05.025Z,101345.42
2018-12-22T14:30:29.865Z,101357.62
2018-12-22T14:34:00.672Z,101351.63
2018-12-22T14:37:25.322Z,101359.23
2018-12-22T14:40:50.019Z,101357.50
2018-12-22T14:44:14.727Z,101365.58
2018-12-22T14:47:39.447Z,101362.37
2018-12-22T14:51:04.179Z,101374.55
2018-12-22T14:54:28.955Z,101384.19
2018-12-22T14:58:00.094Z,101386.72
2018-12-22T15:01:24.965Z,101401.58
2018-12-22T15:04:49.573Z,101402.72
2018-12-22T15:08:14.242Z,101401.31
2018-12-22T15:11:38.859Z,101409.14
2018-12-22T15:15:03.475Z,101408.50
2018-12-22T15:18:28.113Z,101414.50
2018-12-22T15:23:21.507Z,101419.30
2018-12-22T15:26:46.193Z,101423.27
2018-12-22T15:30:14.300Z,101420.75
2018-12-22T15:33:39.160Z,101418.70
2018-12-22T15:37:03.909Z,101428.34
2018-12-22T15:40:28.664Z,101432.89
2018-12-22T15:43:53.362Z,101431.89
2018-12-22T15:47:18.051Z,101442.98
2018-12-22T15:50:44.112Z,101453.59
2018-12-22T15:54:09.031Z,101453.63
2018-12-22T15:57:33.686Z,101462.55
2018-12-22T16:00:58.364Z,101469.23
2018-12-22T16:04:23.167Z,101468.98
2018-12-22T16:07:47.915Z,101466.26
2018-12-22T16:11:12.566Z,101471.39
2018-12-22T16:14:37.256Z,101471.88
2018-12-22T16:18:01.934Z,101473.02
2018-12-22T16:21:26.640Z,101484.50
2018-12-22T16:24:51.294Z,101475.39
2018-12-22T16:28:23.443Z,101484.89
2018-12-22T16:31:48.137Z,101482.34
2018-12-22T16:35:12.894Z,101491.54
2018-12-22T16:38:37.582Z,101487.31
2018-12-22T16:42:02.257Z,101495.47
2018-12-22T16:45:26.920Z,101495.02
2018-12-22T16:48:51.572Z,101501.42
2018-12-22T16:52:16.218Z,101500.80
2018-12-22T16:55:40.856Z,101506.69
2018-12-22T16:59:05.903Z,101504.69
2018-12-22T17:02:56.331Z,101508.30
2018-12-22T17:06:21.217Z,101516.79
2018-12-22T17:09:45.908Z,101529.07
2018-12-22T17:13:11.931Z,101526.36
2018-12-22T17:16:36.810Z,101539.72
2018-12-22T17:20:01.508Z,101546.14
2018-12-22T17:23:42.379Z,101543.83
2018-12-22T17:27:07.064Z,101548.17
2018-12-22T17:30:31.710Z,101547.27
2018-12-22T17:33:56.369Z,101562.50
2018-12-22T17:37:21.116Z,101568.94
2018-12-22T17:40:45.852Z,101569.73
2018-12-22T17:44:10.506Z,101575.77
2018-12-22T17:47:35.232Z,101585.11
2018-12-22T17:50:59.917Z,101590.64
2018-12-22T17:54:24.577Z,101592.61
2018-12-22T17:57:49.232Z,101599.33
2018-12-22T18:01:13.901Z,101606.21
2018-12-22T18:04:38.555Z,101608.31
2018-12-22T18:08:03.190Z,101616.63
2018-12-22T18:11:28.026Z,101634.22
2018-12-22T18:14:52.674Z,101627.02
2018-12-22T18:18:17.387Z,101634.22
2018-12-22T18:21:42.089Z,101642.14
2018-12-22T18:25:10.169Z,101641.53
2018-12-22T18:28:37.692Z,101654.52
2018-12-22T18:32:02.338Z,101658.79
2018-12-22T18:35:26.951Z,101646.83
2018-12-22T18:38:51.638Z,101647.38
2018-12-22T18:42:16.889Z,101657.14
2018-12-22T18:45:41.483Z,101646.41
2018-12-22T18:49:06.101Z,101649.83
2018-12-22T18:52:30.708Z,101647.00
2018-12-22T18:55:55.359Z,101641.84
2018-12-22T18:59:21.941Z,101644.53
2018-12-22T19:02:46.623Z,101660.78
2018-12-22T19:06:11.274Z,101655.00
2018-12-22T19:09:38.742Z,101668.08
2018-12-22T19:13:03.399Z,101673.03
2018-12-22T19:16:28.051Z,101682.11
2018-12-22T19:19:53.395Z,101691.65
2018-12-22T19:23:20.268Z,101674.88
2018-12-22T19:26:44.955Z,101676.61
2018-12-22T19:30:09.759Z,101674.16
2018-12-22T19:33:34.471Z,101675.66
2018-12-22T19:36:59.083Z,101683.19
2018-12-22T19:40:23.727Z,101675.06
2018-12-22T19:43:48.391Z,101675.66
2018-12-22T19:47:13.110Z,101677.73
2018-12-22T19:50:37.752Z,101684.63
2018-12-22T19:54:02.423Z,101692.70
2018-12-22T19:57:27.090Z,101699.20
2018-12-22T20:00:51.732Z,101705.30
2018-12-22T20:04:16.083Z,101691.91
2018-12-22T20:07:40.781Z,101690.78
2018-12-22T20:11:05.444Z,101702.97
2018-12-22T20:14:30.079Z,101703.33
2018-12-22T20:17:54.798Z,101711.24
2018-12-22T20:21:19.464Z,101711.87
2018-12-22T20:24:44.178Z,101716.19
2018-12-22T20:28:08.891Z,101713.38
2018-12-22T20:31:33.516Z,101717.93
2018-12-22T20:34:58.173Z,101719.67
2018-12-22T20:38:22.832Z,101728.30
2018-12-22T20:41:47.442Z,101723.70
2018-12-22T20:45:12.071Z,101716.66
2018-12-22T20:48:36.772Z,101721.89
2018-12-22T20:52:01.450Z,101735.34
2018-12-22T20:55:26.090Z,101739.27
2018-12-22T20:58:50.777Z,101741.09
2018-12-22T21:02:15.411Z,101746.43
2018-12-22T21:05:47.693Z,101750.39
2018-12-22T21:09:12.451Z,101751.34
2018-12-22T21:12:37.044Z,101753.01
2018-12-22T21:16:01.717Z,101749.83
2018-12-22T21:19:26.516Z,101753.59
2018-12-22T21:22:51.263Z,101758.16
2018-12-22T21:26:15.970Z,101768.27
2018-12-22T21:29:40.648Z,101763.31
2018-12-22T21:33:05.300Z,101763.35
2018-12-22T21:36:30.072Z,101766.56
2018-12-22T21:39:54.780Z,101768.92
2018-12-22T21:43:19.449Z,101772.56
2018-12-22T21:46:44.069Z,101771.33
2018-12-22T21:50:08.731Z,101782.66
2018-12-22T21:53:33.355Z,101786.70
2018-12-22T21:56:58.286Z,101793.41
2018-12-22T22:00:23.134Z,101796.98
2018-12-22T22:03:48.175Z,101802.45
2018-12-22T22:07:13.028Z,101800.54
2018-12-22T22:10:38.244Z,101803.98
2018-12-22T22:14:03.043Z,101806.27
2018-12-22T22:17:27.880Z,101809.76
2018-12-22T22:20:52.724Z,101808.08
2018-12-22T22:24:17.787Z,101818.57
2018-12-22T22:27:43.057Z,101820.80
2018-12-22T22:31:07.852Z,101833.95
2018-12-22T22:34:35.530Z,101827.45
2018-12-22T22:38:00.285Z,101849.02
2018-12-22T22:41:25.098Z,101850.42
2018-12-22T22:44:49.879Z,101855.96
2018-12-22T22:48:15.630Z,101848.19
2018-12-22T22:51:40.431Z,101847.70
2018-12-22T22:55:05.441Z,101848.17
2018-12-22T22:58:30.059Z,101847.20
2018-12-22T23:01:54.734Z,101852.61
2018-12-22T23:05:19.376Z,101848.07
2018-12-22T23:08:44.037Z,101847.37
2018-12-22T23:12:08.687Z,101842.75
2018-12-22T23:15:33.345Z,101841.24
2018-12-22T23:18:57.987Z,101838.59
2018-12-22T23:22:22.674Z,101849.67
2018-12-22T23:25:47.383Z,101842.06
2018-12-22T23:29:12.079Z,101842.47
2018-12-22T23:32:36.738Z,101841.07
2018-12-22T23:36:01.329Z,101845.62
2018-12-22T23:39:25.959Z,101846.50
2018-12-22T23:42:50.636Z,101848.89
2018-12-22T23:46:15.304Z,101842.58
2018-12-22T23:49:42.639Z,101844.36
2018-12-22T23:53:12.027Z,101856.83
2018-12-22T23:56:39.584Z,101857.92
